EDDSEDDN

Guest
Details From EDDS - Stuttgart
To EDDN - Nurnberg
Flight Number -
Tags generated
Created
Modified
Stats Distance 88 nm / 162 km
Max Altitude 8,300 ft / 2,530 m
Waypoints 3
Social Downloads 1
Likes 0
Share VATSIM

Download

Looking for another format? Having issues loading an existing format? Contact us
Advertisement - Login to hide

Notes

Basic altitude profile: - Ascent Rate: 2500ft/min - Ascent Speed: 250kts - Cruise Altitude: 35000ft - Cruise Speed: 420kts - Descent Rate: 1500ft/min - Descent Speed: 250kts Options: - Use NATs: yes - Use PACOTS: yes - Use low airways: yes - Use high airways: no

Route

EDDS DKB EDDN

ID Type Via Altitude Latitude Longitude Leg Dist Tot Dist Heading (true) Name
O EDDS APT - 0 ft / 0 m 48.68988˚ 9.22196˚ - 0 nm - Stuttgart
DKB VOR - 8,300 ft / 2,530 m 49.14275˚ 10.23831˚ 48 nm 48 nm 55° / 56° DINKELSBUHL VORTAC
O EDDN APT - 0 ft / 0 m 49.49874˚ 11.07758˚ 39 nm 87 nm 57° / 57° Nurnberg

Altitude Profile

Advertisement - Login to hide

EDDS

Details ICAO EDDS (STR)
Name Stuttgart
Region Germany - Civil
Timezone Europe/Berlin (UTC+1.0)
Stats Elevation 1,273 ft / 388 m (AMSL)
Location 48.689876° 9.221962°
Runways 1
Magnetic Variation 2.525° E

METAR

EDDS 182020Z 06001KT 9999 FEW006 OVC034 01/00 Q1027 R25/29//95 NOSIG

Decode

TAF

TAF TAF EDDS 181700Z 1818/1918 VRB03KT 9999 SCT012 BKN020 TEMPO 1900/1910 3500 -SN FEW007 BKN010 PROB30 TEMPO 1910/1916 4000 -RASN BKN008

Decode

Departure Runways

ID Width Length Bearing (true) Bearing (mag) Surface Threshold Offset Overrun Length
07 148 ft / 45 m 10,950 ft / 3,337 m 73.96° 71.44° Concrete 981 ft / 299 m 157 ft / 48 m
25 148 ft / 45 m 10,950 ft / 3,337 m 253.99° 251.47° Concrete 0 ft / 0 m 157 ft / 48 m

EDDN

Details ICAO EDDN (NUE)
Name Nurnberg
Region Germany - Civil
Timezone Europe/Berlin (UTC+1.0)
Stats Elevation 1,045 ft / 319 m (AMSL)
Location 49.498744° 11.077580°
Runways 1
Magnetic Variation 3.020° E

METAR

EDDN 182020Z 12003KT 9999 BKN032 M02/M04 Q1028 NOSIG

Decode

TAF

TAF EDDN 181700Z 1818/1918 11005KT 9999 BKN025 BECMG 1908/1910 27005KT TEMPO 1916/1918 3500 -SN BKN012

Decode

Destination Runways

ID Width Length Bearing (true) Bearing (mag) Surface Threshold Offset Overrun Length
10 148 ft / 45 m 8,819 ft / 2,688 m 98.60° 95.58° Asphalt 0 ft / 0 m 0 ft / 0 m
28 148 ft / 45 m 8,819 ft / 2,688 m 278.63° 275.61° Asphalt 0 ft / 0 m 0 ft / 0 m

Approach Navaids

Runway Type Ident Frequency Range Bearing (true) Bearing (mag) Slope Elevation
10 Localiser INUE 111.30 MHz 18 nm / 33 km 98.64° 95.62° - 1,046 ft / 319 m (AMSL)
10 Glidescope INUE 111.30 MHz 10 nm / 19 km 98.61° 95.59° 3.00° 1,022 ft / 312 m (AMSL)
28 Localiser INUW 109.10 MHz 23 nm / 43 km 278.59° 275.57° - 1,122 ft / 342 m (AMSL)
28 Glidescope INUW 109.10 MHz 10 nm / 19 km 278.62° 275.59° 3.00° 1,046 ft / 319 m (AMSL)

Popular Alternatives